This is the latest recevied weather packets stored in our database for station/object KD8FRE. If no packets are shown the sender has not sent any weather packets the latest 10 day(s).
| Time | Temp. | Humidity | Pressure | Rain* | Wind** | Luminosity | Snow |
|---|---|---|---|---|---|---|---|
| 1777655592 | 8.33° C | 51% | 1013.9 hPa | 0 mm | - | 226 W/m² | - |
| 1777653471 | 8.33° C | 52% | 1014.1 hPa | 0 mm | - | 251 W/m² | - |
| 1777653169 | 7.78° C | 56% | 1014 hPa | 0 mm | - | 207 W/m² | - |
| 1777652864 | 7.78° C | 57% | 1013.9 hPa | 0 mm | - | 178 W/m² | - |
| 1777652561 | 7.78° C | 57% | 1014 hPa | 0 mm | - | 123 W/m² | - |
| 1777652258 | 8.33° C | 55% | 1013.9 hPa | 0 mm | - | 121 W/m² | - |
| 1777651955 | 8.89° C | 53% | 1013.9 hPa | 0 mm | - | 153 W/m² | - |
| 1777651652 | 8.89° C | 52% | 1014 hPa | 0 mm | - | 212 W/m² | - |
| 1777651349 | 9.44° C | 50% | 1013.9 hPa | 0 mm | - | 274 W/m² | - |
| 1777651046 | 8.89° C | 52% | 1013.8 hPa | 0 mm | - | 461 W/m² | - |
| 1777650743 | 8.33° C | 53% | 1013.9 hPa | 0 mm | - | 288 W/m² | - |
| 1777650440 | 8.33° C | 55% | 1014 hPa | 0 mm | - | 203 W/m² | - |
| 1777650137 | 8.33° C | 51% | 1013.8 hPa | 0 mm | - | 209 W/m² | - |
| 1777649835 | 8.89° C | 55% | 1013.9 hPa | 0 mm | - | 205 W/m² | - |
| 1777649532 | 8.89° C | 55% | 1013.8 hPa | 0 mm | - | 460 W/m² | - |
| 1777649227 | 7.78° C | 61% | 1014 hPa | 0 mm | - | 392 W/m² | - |
| 1777648925 | 8.33° C | 59% | 1013.9 hPa | 0 mm | - | 129 W/m² | - |
| 1777648622 | 7.78° C | 61% | 1013.8 hPa | 0 mm | - | 300 W/m² | - |
| 1777648318 | 7.78° C | 61% | 1013.9 hPa | 0 mm | - | 130 W/m² | - |
| 1777648015 | 7.78° C | 64% | 1014 hPa | 0 mm | - | 414 W/m² | - |
| 1777647711 | 7.78° C | 65% | 1013.9 hPa | 0 mm | - | 302 W/m² | - |
| 1777647407 | 7.78° C | 65% | 1014 hPa | 0 mm | - | 210 W/m² | - |
| 1777646193 | 7.22° C | 68% | 1013.9 hPa | 0 mm | - | 143 W/m² | - |
| 1777645891 | 7.22° C | 67% | 1014 hPa | 0 mm | - | 132 W/m² | - |
| 1777645587 | 7.78° C | 67% | 1014 hPa | 0 mm | - | 209 W/m² | - |
* Rain latest hour (hover to see other rain measurements)
** Current wind speed in m/s (hover to see current wind gust speed)